Terminal Aerodrome Forecast
Issued by NWS

Current Version | Previous Version | Graphics & Text | Print | Product List | Glossary On
Versions: 1 2 3 4 5 6 7 8 9 10 11 12 13 14 15 16 17 18 19 20 21 22 23 24 25
861
FTUS41 KRLX 190538
TAFCKB
TAF
KCKB 190538Z 1906/2006 00000KT 3SM BR FEW250
     FM190830 00000KT 1SM BR BKN001
     FM191200 00000KT 3SM BR SCT001
     FM191230 22002KT P6SM FEW250
     FM191600 25006KT P6SM SCT060
     FM200100 VRB02KT P6SM SCT250=

USA.gov is the U.S. government's official web portal to all federal, state and local government web resources and services.